Qurghonteppa International Airport
UTDT : now visible

Airfield :











YOU CAN JOIN US ON...

 
LOGIN :

Register | Disclaimer

   EN    FR    IT 

 









Legend :    VFR   Marginal VFR   IFR   Intensive IFR   Very Intensive IFR
Visi :
Ceiling :
>= 8 km
>= 3000ft
5 to 8 km
1000 to 3000 ft
1500m to 5 km
500 to 1000 ft
800 to 1500m
200 to 500 ft
< 800m
< 200 ft
Symbols :   Thunderstorms  Fog  Heavy snow  Heavy precipitations  Wind > 20 kt






- Airport Elevation : 1473 ft
- IATA code : KQT


UTDT - Qurghonteppa International

CURRENT METAR :
  • 250100Z 00000MPS 9999 FEW120 24/16 Q0997 R35/CLRD70 RMK QFE709/0945

EXPIRED METARs :
  • 250030Z 05002MPS 9999 FEW120 23/16 Q0996 R35/CLRD70 RMK QFE709/0945
  • 250000Z 00000MPS 9999 FEW130 24/16 Q0996 R35/CLRD70 RMK QFE708/0945
  • 242330Z VRB01MPS 9999 FEW130 24/17 Q0996 R35/CLRD70 RMK QFE708/0945
  • 242300Z 36002MPS 9999 FEW130 25/14 Q0996 R35/CLRD70 RMK QFE708/0944
  • 242230Z 03002MPS 350V070 9999 FEW130 25/13 Q0996 R35/CLRD70 RMK QFE708/0944
  • 242200Z 08001MPS 9999 FEW130 25/15 Q0996 R35/CLRD70 RMK QFE708/0944
  • 242130Z 01001MPS 9999 FEW130 25/19 Q0996 R35/CLRD70 RMK QFE708/0944
  • 242100Z 04002MPS 020V080 9999 FEW130 26/16 Q0996 R35/CLRD70 RMK QFE708/0944
  • 242030Z VRB01MPS 9999 FEW130 25/20 Q0996 R35/CLRD70 RMK QFE708/0944

TAF TAF UTDT
Valid from the 25 at 01:00 until the 25 at 13:00 UTC


250001Z 2501/2513 VRB02MPS 9999 FEW066 SCT100
UTDD FIR / Asia



MET'MAP, your aeronautical weather chart ! - Copyright ORBIFLY December 2007 - Disclaimer

ORBIFLY MET'MAP TEAM :

Programming & Development : Alexandra Zaïnal
Original concept : Baudouin d'Aumeries
Technical & hardware support : Manuel Goepfert
Assistance : Marc-Olivier Méhu




SOURCES & CREDITS :

   NOAA       Earth
Advisory